sensor_id;sensor_type;location;lat;lon;timestamp;temperature;humidity
3067;DHT22;1544;48.834;9.194;2023-06-14T00:01:22;17.50;27.60
3067;DHT22;1544;48.834;9.194;2023-06-14T00:03:58;17.40;27.60
3067;DHT22;1544;48.834;9.194;2023-06-14T00:06:34;17.40;27.70
3067;DHT22;1544;48.834;9.194;2023-06-14T00:09:11;17.30;27.90
3067;DHT22;1544;48.834;9.194;2023-06-14T00:11:52;17.30;28.10
3067;DHT22;1544;48.834;9.194;2023-06-14T00:14:28;17.20;28.10
3067;DHT22;1544;48.834;9.194;2023-06-14T00:17:04;17.20;28.20
3067;DHT22;1544;48.834;9.194;2023-06-14T00:19:40;17.10;28.20
3067;DHT22;1544;48.834;9.194;2023-06-14T00:22:16;17.00;28.30
3067;DHT22;1544;48.834;9.194;2023-06-14T00:24:52;17.00;28.60
3067;DHT22;1544;48.834;9.194;2023-06-14T00:27:31;16.90;28.40
3067;DHT22;1544;48.834;9.194;2023-06-14T00:30:07;16.90;28.50
3067;DHT22;1544;48.834;9.194;2023-06-14T00:32:44;16.80;28.50
3067;DHT22;1544;48.834;9.194;2023-06-14T00:35:21;16.70;28.60
3067;DHT22;1544;48.834;9.194;2023-06-14T00:37:57;16.70;28.50
3067;DHT22;1544;48.834;9.194;2023-06-14T00:40:33;16.70;28.50
3067;DHT22;1544;48.834;9.194;2023-06-14T00:43:10;16.60;28.50
3067;DHT22;1544;48.834;9.194;2023-06-14T00:45:46;16.60;28.40
3067;DHT22;1544;48.834;9.194;2023-06-14T00:48:22;16.60;28.40
3067;DHT22;1544;48.834;9.194;2023-06-14T00:51:00;16.60;28.40
3067;DHT22;1544;48.834;9.194;2023-06-14T00:53:40;16.50;28.50
3067;DHT22;1544;48.834;9.194;2023-06-14T00:56:21;16.50;28.60
3067;DHT22;1544;48.834;9.194;2023-06-14T00:58:59;16.40;28.50
3067;DHT22;1544;48.834;9.194;2023-06-14T01:01:36;16.40;28.50
3067;DHT22;1544;48.834;9.194;2023-06-14T01:04:12;16.40;28.60
3067;DHT22;1544;48.834;9.194;2023-06-14T01:07:02;16.30;28.70
3067;DHT22;1544;48.834;9.194;2023-06-14T01:10:12;16.30;28.70
3067;DHT22;1544;48.834;9.194;2023-06-14T01:13:11;16.20;28.80
3067;DHT22;1544;48.834;9.194;2023-06-14T01:15:56;16.20;28.90
3067;DHT22;1544;48.834;9.194;2023-06-14T01:18:32;16.10;28.90
3067;DHT22;1544;48.834;9.194;2023-06-14T01:21:26;16.10;29.00
3067;DHT22;1544;48.834;9.194;2023-06-14T01:24:04;16.00;28.90
3067;DHT22;1544;48.834;9.194;2023-06-14T01:26:40;16.00;29.00
3067;DHT22;1544;48.834;9.194;2023-06-14T01:29:23;15.90;29.00
3067;DHT22;1544;48.834;9.194;2023-06-14T01:32:01;15.90;29.00
3067;DHT22;1544;48.834;9.194;2023-06-14T01:34:39;15.80;29.20
3067;DHT22;1544;48.834;9.194;2023-06-14T01:37:15;15.80;29.20
3067;DHT22;1544;48.834;9.194;2023-06-14T01:39:52;15.80;29.20
3067;DHT22;1544;48.834;9.194;2023-06-14T01:42:28;15.70;29.10
3067;DHT22;1544;48.834;9.194;2023-06-14T01:45:05;15.70;29.20
3067;DHT22;1544;48.834;9.194;2023-06-14T01:47:44;15.70;29.20
3067;DHT22;1544;48.834;9.194;2023-06-14T01:50:21;15.60;29.10
3067;DHT22;1544;48.834;9.194;2023-06-14T01:52:57;15.60;29.20
3067;DHT22;1544;48.834;9.194;2023-06-14T01:55:34;15.50;29.20
3067;DHT22;1544;48.834;9.194;2023-06-14T01:58:15;15.50;29.20
3067;DHT22;1544;48.834;9.194;2023-06-14T02:00:52;15.50;29.20
3067;DHT22;1544;48.834;9.194;2023-06-14T02:03:31;15.50;29.30
3067;DHT22;1544;48.834;9.194;2023-06-14T02:06:07;15.40;29.30
3067;DHT22;1544;48.834;9.194;2023-06-14T02:08:43;15.40;29.40
3067;DHT22;1544;48.834;9.194;2023-06-14T02:11:18;15.40;29.40
3067;DHT22;1544;48.834;9.194;2023-06-14T02:13:55;15.30;29.50
3067;DHT22;1544;48.834;9.194;2023-06-14T02:16:31;15.30;29.60
3067;DHT22;1544;48.834;9.194;2023-06-14T02:19:11;15.20;29.60
3067;DHT22;1544;48.834;9.194;2023-06-14T02:21:47;15.20;29.60
3067;DHT22;1544;48.834;9.194;2023-06-14T02:24:23;15.20;29.60
3067;DHT22;1544;48.834;9.194;2023-06-14T02:26:59;15.10;29.60
3067;DHT22;1544;48.834;9.194;2023-06-14T02:29:36;15.00;29.60
3067;DHT22;1544;48.834;9.194;2023-06-14T02:32:12;15.00;29.70
3067;DHT22;1544;48.834;9.194;2023-06-14T02:34:48;15.00;29.70
3067;DHT22;1544;48.834;9.194;2023-06-14T02:37:25;14.90;29.60
3067;DHT22;1544;48.834;9.194;2023-06-14T02:40:01;14.90;29.60
3067;DHT22;1544;48.834;9.194;2023-06-14T02:42:39;14.90;29.70
3067;DHT22;1544;48.834;9.194;2023-06-14T02:45:15;14.90;29.70
3067;DHT22;1544;48.834;9.194;2023-06-14T02:47:51;14.90;29.70
3067;DHT22;1544;48.834;9.194;2023-06-14T02:50:27;14.80;29.70
3067;DHT22;1544;48.834;9.194;2023-06-14T02:53:05;14.80;29.70
3067;DHT22;1544;48.834;9.194;2023-06-14T02:55:42;14.80;29.80
3067;DHT22;1544;48.834;9.194;2023-06-14T02:58:18;14.80;29.80
3067;DHT22;1544;48.834;9.194;2023-06-14T03:00:54;14.70;29.80
3067;DHT22;1544;48.834;9.194;2023-06-14T03:03:31;14.70;29.80
3067;DHT22;1544;48.834;9.194;2023-06-14T03:06:07;14.70;29.90
3067;DHT22;1544;48.834;9.194;2023-06-14T03:08:45;14.70;29.90
3067;DHT22;1544;48.834;9.194;2023-06-14T03:11:26;14.60;29.80
3067;DHT22;1544;48.834;9.194;2023-06-14T03:14:02;14.60;29.80
3067;DHT22;1544;48.834;9.194;2023-06-14T03:16:40;14.60;29.90
3067;DHT22;1544;48.834;9.194;2023-06-14T03:19:20;14.60;29.90
3067;DHT22;1544;48.834;9.194;2023-06-14T03:21:56;14.50;29.80
3067;DHT22;1544;48.834;9.194;2023-06-14T03:24:35;14.50;29.80
3067;DHT22;1544;48.834;9.194;2023-06-14T03:27:18;14.50;30.00
3067;DHT22;1544;48.834;9.194;2023-06-14T03:29:54;14.50;29.90
3067;DHT22;1544;48.834;9.194;2023-06-14T03:32:31;14.50;30.00
3067;DHT22;1544;48.834;9.194;2023-06-14T03:35:09;14.50;30.00
3067;DHT22;1544;48.834;9.194;2023-06-14T03:37:53;14.40;30.00
3067;DHT22;1544;48.834;9.194;2023-06-14T03:40:29;14.40;30.00
3067;DHT22;1544;48.834;9.194;2023-06-14T03:43:10;14.40;30.00
3067;DHT22;1544;48.834;9.194;2023-06-14T03:45:47;14.40;30.10
3067;DHT22;1544;48.834;9.194;2023-06-14T03:48:23;14.40;30.20
3067;DHT22;1544;48.834;9.194;2023-06-14T03:50:59;14.40;30.10
3067;DHT22;1544;48.834;9.194;2023-06-14T03:53:37;14.30;30.00
3067;DHT22;1544;48.834;9.194;2023-06-14T03:56:29;14.40;30.10
3067;DHT22;1544;48.834;9.194;2023-06-14T03:59:05;14.40;30.20
3067;DHT22;1544;48.834;9.194;2023-06-14T04:01:41;14.40;30.30
3067;DHT22;1544;48.834;9.194;2023-06-14T04:04:22;14.30;30.30
3067;DHT22;1544;48.834;9.194;2023-06-14T04:07:05;14.30;30.20
3067;DHT22;1544;48.834;9.194;2023-06-14T04:09:41;14.40;30.30
3067;DHT22;1544;48.834;9.194;2023-06-14T04:12:17;14.40;30.40
3067;DHT22;1544;48.834;9.194;2023-06-14T04:14:53;14.40;30.40
3067;DHT22;1544;48.834;9.194;2023-06-14T04:17:35;14.40;30.40
3067;DHT22;1544;48.834;9.194;2023-06-14T04:20:13;14.40;30.40
3067;DHT22;1544;48.834;9.194;2023-06-14T04:22:49;14.50;30.50
3067;DHT22;1544;48.834;9.194;2023-06-14T04:25:26;14.50;30.50
3067;DHT22;1544;48.834;9.194;2023-06-14T04:28:04;14.60;30.50
3067;DHT22;1544;48.834;9.194;2023-06-14T04:30:41;14.60;30.50
3067;DHT22;1544;48.834;9.194;2023-06-14T04:33:18;14.70;30.50
3067;DHT22;1544;48.834;9.194;2023-06-14T04:35:54;14.70;30.50
3067;DHT22;1544;48.834;9.194;2023-06-14T04:38:32;14.80;30.50
3067;DHT22;1544;48.834;9.194;2023-06-14T04:41:10;14.80;30.50
3067;DHT22;1544;48.834;9.194;2023-06-14T04:43:49;14.80;30.50
3067;DHT22;1544;48.834;9.194;2023-06-14T04:46:26;14.90;30.60
3067;DHT22;1544;48.834;9.194;2023-06-14T04:49:04;14.90;30.50
3067;DHT22;1544;48.834;9.194;2023-06-14T04:51:41;15.00;30.50
3067;DHT22;1544;48.834;9.194;2023-06-14T04:54:18;15.00;30.40
3067;DHT22;1544;48.834;9.194;2023-06-14T04:56:55;15.00;30.40
3067;DHT22;1544;48.834;9.194;2023-06-14T04:59:34;15.10;30.60
3067;DHT22;1544;48.834;9.194;2023-06-14T05:02:11;15.10;30.60
3067;DHT22;1544;48.834;9.194;2023-06-14T05:04:47;15.10;30.40
3067;DHT22;1544;48.834;9.194;2023-06-14T05:07:23;15.20;30.90
3067;DHT22;1544;48.834;9.194;2023-06-14T05:10:00;15.30;30.60
3067;DHT22;1544;48.834;9.194;2023-06-14T05:12:36;15.30;30.60
3067;DHT22;1544;48.834;9.194;2023-06-14T05:15:13;15.40;30.70
3067;DHT22;1544;48.834;9.194;2023-06-14T05:17:51;15.50;30.90
3067;DHT22;1544;48.834;9.194;2023-06-14T05:20:30;15.50;30.90
3067;DHT22;1544;48.834;9.194;2023-06-14T05:23:06;15.60;31.00
3067;DHT22;1544;48.834;9.194;2023-06-14T05:25:46;15.60;30.90
3067;DHT22;1544;48.834;9.194;2023-06-14T05:28:22;15.70;30.90
3067;DHT22;1544;48.834;9.194;2023-06-14T05:30:58;15.70;30.80
3067;DHT22;1544;48.834;9.194;2023-06-14T05:33:35;15.80;30.90
3067;DHT22;1544;48.834;9.194;2023-06-14T05:36:11;15.90;30.90
3067;DHT22;1544;48.834;9.194;2023-06-14T05:38:47;15.90;30.80
3067;DHT22;1544;48.834;9.194;2023-06-14T05:41:27;16.00;30.90
3067;DHT22;1544;48.834;9.194;2023-06-14T05:44:03;16.00;30.90
3067;DHT22;1544;48.834;9.194;2023-06-14T05:46:39;16.10;31.10
3067;DHT22;1544;48.834;9.194;2023-06-14T05:49:15;16.10;31.00
3067;DHT22;1544;48.834;9.194;2023-06-14T05:51:51;16.20;31.10
3067;DHT22;1544;48.834;9.194;2023-06-14T05:54:27;16.20;31.10
3067;DHT22;1544;48.834;9.194;2023-06-14T05:57:03;16.30;31.10
3067;DHT22;1544;48.834;9.194;2023-06-14T05:59:41;16.30;31.20
3067;DHT22;1544;48.834;9.194;2023-06-14T06:02:17;16.40;31.20
3067;DHT22;1544;48.834;9.194;2023-06-14T06:04:53;16.50;31.30
3067;DHT22;1544;48.834;9.194;2023-06-14T06:07:29;16.60;31.20
3067;DHT22;1544;48.834;9.194;2023-06-14T06:10:06;16.70;31.20
3067;DHT22;1544;48.834;9.194;2023-06-14T06:12:42;16.80;31.10
3067;DHT22;1544;48.834;9.194;2023-06-14T06:15:18;16.90;31.20
3067;DHT22;1544;48.834;9.194;2023-06-14T06:17:55;16.90;30.50
3067;DHT22;1544;48.834;9.194;2023-06-14T06:20:31;17.00;30.40
3067;DHT22;1544;48.834;9.194;2023-06-14T06:23:07;17.00;30.50
3067;DHT22;1544;48.834;9.194;2023-06-14T06:25:45;17.10;30.40
3067;DHT22;1544;48.834;9.194;2023-06-14T06:28:21;17.20;30.40
3067;DHT22;1544;48.834;9.194;2023-06-14T06:30:57;17.30;30.40
3067;DHT22;1544;48.834;9.194;2023-06-14T06:33:33;17.40;30.40
3067;DHT22;1544;48.834;9.194;2023-06-14T06:36:09;17.40;30.50
3067;DHT22;1544;48.834;9.194;2023-06-14T06:38:47;17.50;30.50
3067;DHT22;1544;48.834;9.194;2023-06-14T06:41:24;17.60;30.30
3067;DHT22;1544;48.834;9.194;2023-06-14T06:44:00;17.70;30.10
3067;DHT22;1544;48.834;9.194;2023-06-14T06:46:37;17.70;29.50
3067;DHT22;1544;48.834;9.194;2023-06-14T06:49:18;17.80;29.50
3067;DHT22;1544;48.834;9.194;2023-06-14T06:52:05;17.90;29.50
3067;DHT22;1544;48.834;9.194;2023-06-14T06:54:41;18.00;29.40
3067;DHT22;1544;48.834;9.194;2023-06-14T06:57:17;18.00;29.30
3067;DHT22;1544;48.834;9.194;2023-06-14T06:59:53;18.10;29.40
3067;DHT22;1544;48.834;9.194;2023-06-14T07:02:29;18.20;29.40
3067;DHT22;1544;48.834;9.194;2023-06-14T07:05:06;18.30;29.50
3067;DHT22;1544;48.834;9.194;2023-06-14T07:07:42;18.40;29.50
3067;DHT22;1544;48.834;9.194;2023-06-14T07:10:18;18.40;29.40
3067;DHT22;1544;48.834;9.194;2023-06-14T07:12:54;18.50;29.30
3067;DHT22;1544;48.834;9.194;2023-06-14T07:15:31;18.60;29.40
3067;DHT22;1544;48.834;9.194;2023-06-14T07:18:07;18.70;29.40
3067;DHT22;1544;48.834;9.194;2023-06-14T07:20:44;18.70;29.30
3067;DHT22;1544;48.834;9.194;2023-06-14T07:23:20;18.80;29.10
3067;DHT22;1544;48.834;9.194;2023-06-14T07:25:56;18.80;29.00
3067;DHT22;1544;48.834;9.194;2023-06-14T07:28:32;18.90;28.90
3067;DHT22;1544;48.834;9.194;2023-06-14T07:31:08;19.00;29.00
3067;DHT22;1544;48.834;9.194;2023-06-14T07:33:44;19.10;29.00
3067;DHT22;1544;48.834;9.194;2023-06-14T07:36:22;19.10;29.00
3067;DHT22;1544;48.834;9.194;2023-06-14T07:38:58;19.20;29.10
3067;DHT22;1544;48.834;9.194;2023-06-14T07:41:35;19.30;29.20
3067;DHT22;1544;48.834;9.194;2023-06-14T07:44:11;19.30;29.10
3067;DHT22;1544;48.834;9.194;2023-06-14T07:46:49;19.30;29.30
3067;DHT22;1544;48.834;9.194;2023-06-14T07:49:26;19.40;29.40
3067;DHT22;1544;48.834;9.194;2023-06-14T07:52:01;19.50;29.40
3067;DHT22;1544;48.834;9.194;2023-06-14T07:54:37;19.60;29.50
3067;DHT22;1544;48.834;9.194;2023-06-14T07:57:13;19.70;29.50
3067;DHT22;1544;48.834;9.194;2023-06-14T07:59:50;19.80;29.50
3067;DHT22;1544;48.834;9.194;2023-06-14T08:02:26;19.80;29.40
3067;DHT22;1544;48.834;9.194;2023-06-14T08:05:02;19.80;29.40
3067;DHT22;1544;48.834;9.194;2023-06-14T08:07:39;19.90;29.40
3067;DHT22;1544;48.834;9.194;2023-06-14T08:10:16;19.90;29.00
3067;DHT22;1544;48.834;9.194;2023-06-14T08:12:52;19.90;29.10
3067;DHT22;1544;48.834;9.194;2023-06-14T08:15:28;20.00;29.10
3067;DHT22;1544;48.834;9.194;2023-06-14T08:18:04;20.10;29.20
3067;DHT22;1544;48.834;9.194;2023-06-14T08:20:40;20.10;29.00
3067;DHT22;1544;48.834;9.194;2023-06-14T08:23:16;20.20;29.00
3067;DHT22;1544;48.834;9.194;2023-06-14T08:25:56;20.30;28.80
3067;DHT22;1544;48.834;9.194;2023-06-14T08:28:32;20.40;28.80
3067;DHT22;1544;48.834;9.194;2023-06-14T08:31:08;20.50;29.00
3067;DHT22;1544;48.834;9.194;2023-06-14T08:33:44;20.60;29.10
3067;DHT22;1544;48.834;9.194;2023-06-14T08:36:21;20.70;29.00
3067;DHT22;1544;48.834;9.194;2023-06-14T08:38:58;20.80;28.90
3067;DHT22;1544;48.834;9.194;2023-06-14T08:41:34;20.90;28.80
3067;DHT22;1544;48.834;9.194;2023-06-14T08:44:11;21.00;28.90
3067;DHT22;1544;48.834;9.194;2023-06-14T08:46:48;21.10;28.90
3067;DHT22;1544;48.834;9.194;2023-06-14T08:49:24;21.10;28.80
3067;DHT22;1544;48.834;9.194;2023-06-14T08:52:01;21.20;28.60
3067;DHT22;1544;48.834;9.194;2023-06-14T08:54:37;21.30;28.60
3067;DHT22;1544;48.834;9.194;2023-06-14T08:57:19;21.40;28.50
3067;DHT22;1544;48.834;9.194;2023-06-14T08:59:56;21.50;28.60
3067;DHT22;1544;48.834;9.194;2023-06-14T09:02:32;21.60;28.90
3067;DHT22;1544;48.834;9.194;2023-06-14T09:05:11;21.70;28.50
3067;DHT22;1544;48.834;9.194;2023-06-14T09:07:49;21.80;28.30
3067;DHT22;1544;48.834;9.194;2023-06-14T09:10:27;21.90;28.40
3067;DHT22;1544;48.834;9.194;2023-06-14T09:13:04;22.00;28.40
3067;DHT22;1544;48.834;9.194;2023-06-14T09:15:40;22.10;28.20
3067;DHT22;1544;48.834;9.194;2023-06-14T09:18:16;22.10;28.40
3067;DHT22;1544;48.834;9.194;2023-06-14T09:20:53;22.20;28.30
3067;DHT22;1544;48.834;9.194;2023-06-14T09:23:29;22.40;28.30
3067;DHT22;1544;48.834;9.194;2023-06-14T09:26:14;22.50;28.30
3067;DHT22;1544;48.834;9.194;2023-06-14T09:28:55;22.50;28.10
3067;DHT22;1544;48.834;9.194;2023-06-14T09:31:31;22.60;28.00
3067;DHT22;1544;48.834;9.194;2023-06-14T09:34:09;22.70;27.90
3067;DHT22;1544;48.834;9.194;2023-06-14T09:36:45;22.80;27.70
3067;DHT22;1544;48.834;9.194;2023-06-14T09:39:21;22.90;27.80
3067;DHT22;1544;48.834;9.194;2023-06-14T09:41:57;22.90;27.80
3067;DHT22;1544;48.834;9.194;2023-06-14T09:44:33;23.10;28.00
3067;DHT22;1544;48.834;9.194;2023-06-14T09:47:09;23.20;28.00
3067;DHT22;1544;48.834;9.194;2023-06-14T09:49:45;23.30;28.00
3067;DHT22;1544;48.834;9.194;2023-06-14T09:52:22;23.40;28.00
3067;DHT22;1544;48.834;9.194;2023-06-14T09:55:05;23.60;27.80
3067;DHT22;1544;48.834;9.194;2023-06-14T09:57:51;23.60;27.10
3067;DHT22;1544;48.834;9.194;2023-06-14T10:00:28;23.70;26.70
3067;DHT22;1544;48.834;9.194;2023-06-14T10:03:14;23.80;26.90
3067;DHT22;1544;48.834;9.194;2023-06-14T10:05:54;24.00;27.30
3067;DHT22;1544;48.834;9.194;2023-06-14T10:08:32;24.10;27.20
3067;DHT22;1544;48.834;9.194;2023-06-14T10:11:13;24.30;27.20
3067;DHT22;1544;48.834;9.194;2023-06-14T10:13:49;24.40;27.00
3067;DHT22;1544;48.834;9.194;2023-06-14T10:16:34;24.50;26.90
3067;DHT22;1544;48.834;9.194;2023-06-14T10:19:23;24.60;26.40
3067;DHT22;1544;48.834;9.194;2023-06-14T10:22:23;24.80;26.20
3067;DHT22;1544;48.834;9.194;2023-06-14T10:25:07;25.00;26.20
3067;DHT22;1544;48.834;9.194;2023-06-14T10:27:49;25.10;26.10
3067;DHT22;1544;48.834;9.194;2023-06-14T10:30:26;25.30;26.00
3067;DHT22;1544;48.834;9.194;2023-06-14T10:33:07;25.60;25.90
3067;DHT22;1544;48.834;9.194;2023-06-14T10:35:43;25.90;26.00
3067;DHT22;1544;48.834;9.194;2023-06-14T10:38:30;26.10;25.70
3067;DHT22;1544;48.834;9.194;2023-06-14T10:41:07;26.40;25.30
3067;DHT22;1544;48.834;9.194;2023-06-14T10:43:43;26.60;25.30
3067;DHT22;1544;48.834;9.194;2023-06-14T10:46:19;26.80;25.20
3067;DHT22;1544;48.834;9.194;2023-06-14T10:48:58;26.90;24.30
3067;DHT22;1544;48.834;9.194;2023-06-14T10:51:44;26.90;23.50
3067;DHT22;1544;48.834;9.194;2023-06-14T10:54:22;26.80;23.60
3067;DHT22;1544;48.834;9.194;2023-06-14T10:56:59;26.70;23.30
3067;DHT22;1544;48.834;9.194;2023-06-14T10:59:35;26.70;23.40
3067;DHT22;1544;48.834;9.194;2023-06-14T11:04:56;26.90;24.10
3067;DHT22;1544;48.834;9.194;2023-06-14T11:07:44;27.10;24.00
3067;DHT22;1544;48.834;9.194;2023-06-14T11:10:40;27.30;23.60
3067;DHT22;1544;48.834;9.194;2023-06-14T11:13:17;27.60;24.10
3067;DHT22;1544;48.834;9.194;2023-06-14T11:15:53;27.80;23.70
3067;DHT22;1544;48.834;9.194;2023-06-14T11:18:30;28.00;23.40
3067;DHT22;1544;48.834;9.194;2023-06-14T11:21:06;28.00;23.10
3067;DHT22;1544;48.834;9.194;2023-06-14T11:23:49;28.00;23.40
3067;DHT22;1544;48.834;9.194;2023-06-14T11:26:27;28.10;23.70
3067;DHT22;1544;48.834;9.194;2023-06-14T11:29:04;28.20;23.70
3067;DHT22;1544;48.834;9.194;2023-06-14T11:31:43;28.30;23.60
3067;DHT22;1544;48.834;9.194;2023-06-14T11:34:21;28.40;23.30
3067;DHT22;1544;48.834;9.194;2023-06-14T11:36:57;28.50;23.40
3067;DHT22;1544;48.834;9.194;2023-06-14T11:39:33;28.60;23.00
3067;DHT22;1544;48.834;9.194;2023-06-14T11:42:14;28.50;23.10
3067;DHT22;1544;48.834;9.194;2023-06-14T11:44:51;28.60;22.60
3067;DHT22;1544;48.834;9.194;2023-06-14T11:47:32;28.60;22.80
3067;DHT22;1544;48.834;9.194;2023-06-14T11:50:10;28.60;23.20
3067;DHT22;1544;48.834;9.194;2023-06-14T11:52:53;28.60;23.20
3067;DHT22;1544;48.834;9.194;2023-06-14T11:55:30;28.70;23.30
3067;DHT22;1544;48.834;9.194;2023-06-14T11:58:06;28.80;22.50
3067;DHT22;1544;48.834;9.194;2023-06-14T12:00:42;28.70;22.70
3067;DHT22;1544;48.834;9.194;2023-06-14T12:03:23;28.90;23.00
3067;DHT22;1544;48.834;9.194;2023-06-14T12:06:08;28.90;22.90
3067;DHT22;1544;48.834;9.194;2023-06-14T12:08:44;29.10;23.00
3067;DHT22;1544;48.834;9.194;2023-06-14T12:11:21;29.30;23.10
3067;DHT22;1544;48.834;9.194;2023-06-14T12:13:57;29.50;22.70
3067;DHT22;1544;48.834;9.194;2023-06-14T12:16:35;29.50;22.90
3067;DHT22;1544;48.834;9.194;2023-06-14T12:19:14;29.50;22.60
3067;DHT22;1544;48.834;9.194;2023-06-14T12:21:51;29.50;22.80
3067;DHT22;1544;48.834;9.194;2023-06-14T12:24:28;29.50;22.70
3067;DHT22;1544;48.834;9.194;2023-06-14T12:27:05;29.60;22.70
3067;DHT22;1544;48.834;9.194;2023-06-14T12:29:42;29.60;22.60
3067;DHT22;1544;48.834;9.194;2023-06-14T12:32:21;29.40;22.50
3067;DHT22;1544;48.834;9.194;2023-06-14T12:35:00;29.40;22.70
3067;DHT22;1544;48.834;9.194;2023-06-14T12:37:36;29.50;22.90
3067;DHT22;1544;48.834;9.194;2023-06-14T12:40:13;29.60;23.00
3067;DHT22;1544;48.834;9.194;2023-06-14T12:42:49;29.90;23.00
3067;DHT22;1544;48.834;9.194;2023-06-14T12:45:24;30.20;22.70
3067;DHT22;1544;48.834;9.194;2023-06-14T12:48:00;30.50;22.60
3067;DHT22;1544;48.834;9.194;2023-06-14T12:50:37;31.00;22.90
3067;DHT22;1544;48.834;9.194;2023-06-14T12:53:13;31.30;22.20
3067;DHT22;1544;48.834;9.194;2023-06-14T12:55:49;31.50;21.70
3067;DHT22;1544;48.834;9.194;2023-06-14T12:58:26;31.50;21.90
3067;DHT22;1544;48.834;9.194;2023-06-14T13:01:02;31.80;21.90
3067;DHT22;1544;48.834;9.194;2023-06-14T13:03:37;32.10;22.10
3067;DHT22;1544;48.834;9.194;2023-06-14T13:06:14;32.40;21.90
3067;DHT22;1544;48.834;9.194;2023-06-14T13:08:50;32.30;21.90
3067;DHT22;1544;48.834;9.194;2023-06-14T13:11:26;32.20;22.50
3067;DHT22;1544;48.834;9.194;2023-06-14T13:14:02;32.20;21.70
3067;DHT22;1544;48.834;9.194;2023-06-14T13:16:58;32.00;21.60
3067;DHT22;1544;48.834;9.194;2023-06-14T13:19:34;32.00;22.30
3067;DHT22;1544;48.834;9.194;2023-06-14T13:22:10;32.20;22.10
3067;DHT22;1544;48.834;9.194;2023-06-14T13:24:46;32.50;22.00
3067;DHT22;1544;48.834;9.194;2023-06-14T13:27:22;32.80;22.20
3067;DHT22;1544;48.834;9.194;2023-06-14T13:30:00;33.00;21.80
3067;DHT22;1544;48.834;9.194;2023-06-14T13:32:36;33.30;21.90
3067;DHT22;1544;48.834;9.194;2023-06-14T13:35:12;33.60;21.90
3067;DHT22;1544;48.834;9.194;2023-06-14T13:37:48;33.90;21.80
3067;DHT22;1544;48.834;9.194;2023-06-14T13:40:24;34.20;21.30
3067;DHT22;1544;48.834;9.194;2023-06-14T13:43:00;34.00;21.20
3067;DHT22;1544;48.834;9.194;2023-06-14T13:45:36;33.90;21.10
3067;DHT22;1544;48.834;9.194;2023-06-14T13:48:12;33.90;21.40
3067;DHT22;1544;48.834;9.194;2023-06-14T13:50:48;34.10;21.40
3067;DHT22;1544;48.834;9.194;2023-06-14T13:53:24;34.50;21.10
3067;DHT22;1544;48.834;9.194;2023-06-14T13:56:00;34.90;21.60
3067;DHT22;1544;48.834;9.194;2023-06-14T13:58:37;35.10;21.30
3067;DHT22;1544;48.834;9.194;2023-06-14T14:01:13;35.60;21.10
3067;DHT22;1544;48.834;9.194;2023-06-14T14:03:49;35.80;21.10
3067;DHT22;1544;48.834;9.194;2023-06-14T14:06:26;36.20;21.20
3067;DHT22;1544;48.834;9.194;2023-06-14T14:09:02;36.50;21.40
3067;DHT22;1544;48.834;9.194;2023-06-14T14:11:38;36.90;21.50
3067;DHT22;1544;48.834;9.194;2023-06-14T14:14:15;37.00;21.00
3067;DHT22;1544;48.834;9.194;2023-06-14T14:16:51;37.20;21.10
3067;DHT22;1544;48.834;9.194;2023-06-14T14:19:27;37.40;20.90
3067;DHT22;1544;48.834;9.194;2023-06-14T14:22:03;37.60;21.00
3067;DHT22;1544;48.834;9.194;2023-06-14T14:24:39;37.70;20.60
3067;DHT22;1544;48.834;9.194;2023-06-14T14:27:15;37.60;20.40
3067;DHT22;1544;48.834;9.194;2023-06-14T14:29:51;37.70;20.40
3067;DHT22;1544;48.834;9.194;2023-06-14T14:32:27;37.80;20.70
3067;DHT22;1544;48.834;9.194;2023-06-14T14:35:04;37.90;20.70
3067;DHT22;1544;48.834;9.194;2023-06-14T14:37:40;37.80;20.30
3067;DHT22;1544;48.834;9.194;2023-06-14T14:40:16;37.40;20.30
3067;DHT22;1544;48.834;9.194;2023-06-14T14:42:52;37.40;20.80
3067;DHT22;1544;48.834;9.194;2023-06-14T14:45:28;37.60;20.60
3067;DHT22;1544;48.834;9.194;2023-06-14T14:48:05;37.60;20.40
3067;DHT22;1544;48.834;9.194;2023-06-14T14:50:41;37.30;20.30
3067;DHT22;1544;48.834;9.194;2023-06-14T14:53:17;36.80;20.50
3067;DHT22;1544;48.834;9.194;2023-06-14T14:55:53;36.40;20.60
3067;DHT22;1544;48.834;9.194;2023-06-14T14:58:29;35.80;20.80
3067;DHT22;1544;48.834;9.194;2023-06-14T15:01:05;35.20;20.70
3067;DHT22;1544;48.834;9.194;2023-06-14T15:03:44;34.70;20.90
3067;DHT22;1544;48.834;9.194;2023-06-14T15:06:34;34.50;21.00
3067;DHT22;1544;48.834;9.194;2023-06-14T15:09:14;34.20;21.50
3067;DHT22;1544;48.834;9.194;2023-06-14T15:11:50;33.80;21.20
3067;DHT22;1544;48.834;9.194;2023-06-14T15:14:26;33.80;21.30
3067;DHT22;1544;48.834;9.194;2023-06-14T15:17:02;34.00;20.90
3067;DHT22;1544;48.834;9.194;2023-06-14T15:19:42;34.40;21.50
3067;DHT22;1544;48.834;9.194;2023-06-14T15:22:18;35.10;21.40
3067;DHT22;1544;48.834;9.194;2023-06-14T15:24:53;35.80;21.10
3067;DHT22;1544;48.834;9.194;2023-06-14T15:27:30;36.40;20.90
3067;DHT22;1544;48.834;9.194;2023-06-14T15:30:06;36.50;20.80
3067;DHT22;1544;48.834;9.194;2023-06-14T15:32:42;36.40;20.90
3067;DHT22;1544;48.834;9.194;2023-06-14T15:35:18;36.20;20.80
3067;DHT22;1544;48.834;9.194;2023-06-14T15:37:54;35.90;20.80
3067;DHT22;1544;48.834;9.194;2023-06-14T15:40:30;35.50;20.80
3067;DHT22;1544;48.834;9.194;2023-06-14T15:43:06;35.20;20.80
3067;DHT22;1544;48.834;9.194;2023-06-14T15:45:43;34.90;21.00
3067;DHT22;1544;48.834;9.194;2023-06-14T15:48:20;35.40;21.20
3067;DHT22;1544;48.834;9.194;2023-06-14T15:50:56;37.70;20.80
3067;DHT22;1544;48.834;9.194;2023-06-14T15:53:32;40.00;20.40
3067;DHT22;1544;48.834;9.194;2023-06-14T15:56:10;42.10;20.10
3067;DHT22;1544;48.834;9.194;2023-06-14T15:58:45;44.10;19.70
3067;DHT22;1544;48.834;9.194;2023-06-14T16:01:22;45.80;19.70
3067;DHT22;1544;48.834;9.194;2023-06-14T16:03:59;45.50;19.10
3067;DHT22;1544;48.834;9.194;2023-06-14T16:06:35;44.70;19.10
3067;DHT22;1544;48.834;9.194;2023-06-14T16:09:11;44.20;19.20
3067;DHT22;1544;48.834;9.194;2023-06-14T16:11:47;43.70;19.30
3067;DHT22;1544;48.834;9.194;2023-06-14T16:14:23;42.70;19.40
3067;DHT22;1544;48.834;9.194;2023-06-14T16:16:59;41.30;19.40
3067;DHT22;1544;48.834;9.194;2023-06-14T16:19:36;40.00;19.60
3067;DHT22;1544;48.834;9.194;2023-06-14T16:22:12;38.80;19.90
3067;DHT22;1544;48.834;9.194;2023-06-14T16:24:48;38.80;19.90
3067;DHT22;1544;48.834;9.194;2023-06-14T16:27:24;39.70;20.00
3067;DHT22;1544;48.834;9.194;2023-06-14T16:30:00;40.80;20.00
3067;DHT22;1544;48.834;9.194;2023-06-14T16:32:35;41.40;19.90
3067;DHT22;1544;48.834;9.194;2023-06-14T16:35:11;42.10;19.60
3067;DHT22;1544;48.834;9.194;2023-06-14T16:37:47;42.50;19.70
3067;DHT22;1544;48.834;9.194;2023-06-14T16:40:24;42.50;19.70
3067;DHT22;1544;48.834;9.194;2023-06-14T16:43:00;42.40;19.70
3067;DHT22;1544;48.834;9.194;2023-06-14T16:45:36;42.00;19.40
3067;DHT22;1544;48.834;9.194;2023-06-14T16:48:12;41.80;19.70
3067;DHT22;1544;48.834;9.194;2023-06-14T16:50:48;41.20;19.50
3067;DHT22;1544;48.834;9.194;2023-06-14T16:53:24;40.90;19.50
3067;DHT22;1544;48.834;9.194;2023-06-14T16:56:00;40.40;19.70
3067;DHT22;1544;48.834;9.194;2023-06-14T16:58:38;40.00;19.70
3067;DHT22;1544;48.834;9.194;2023-06-14T17:01:14;39.70;20.00
3067;DHT22;1544;48.834;9.194;2023-06-14T17:03:51;39.30;20.10
3067;DHT22;1544;48.834;9.194;2023-06-14T17:06:27;39.10;20.30
3067;DHT22;1544;48.834;9.194;2023-06-14T17:09:03;38.70;20.30
3067;DHT22;1544;48.834;9.194;2023-06-14T17:11:40;38.40;20.40